Hauptseite
METAR-TAF:

METAR-TAF

Flughäfen :

Flughafen Victoria Falls

Victoria Falls, Simbabwe

Breite: 18-06S, Länge: 025-51E, Höhe: 1061 m

Beobachtung

Neuester Wetterbericht von vor 4 Stunden und 43 Minuten, um 09:00 UTC
Wind 10 kt aus Ost/Südost
Temperatur 21°C
Luftfeuchtigkeit 49%
Luftdruck 1026 hPa
Sichtweite 10 km oder mehr
keine Wolken unter 1500 m und keine Kumulonimbus oder Gewitterwolken

METAR: FVFA 060900Z 11010KT CAVOK 21/10 Q1026 NOSIG

Zeit: 15:43 (13:43 UTC)


TAF: fehlend

Wetterbeobachtungen und Prognosen von mehr als 4000 Flughäfen (METAR und TAF Bericht).

Die verfügbaren Stationen werden durch gelbe und rote Markierungen auf der Karte dargestellt.

Führen Sie die Maus auf sie, um den Namen der Station zu sehen.

Darauf klicken, um die Beobachtung von Wetterbeobachtungen und Prognosen zu sehen.

Um die Karte zu ändern : klicken Sie auf den grünen Tasten mit einem schwarzen Kreuz Zum Vergrößern, auf den grünen Button mit einem Gedankenstrich zu verkleinern, oder auf die grünen Pfeile für benachbarte Karten.


METAR-TAF: